Time;durP1;ratioP1;P1;durP2;ratioP2;P2;SDS_P1;SDS_P2;PMS_P1;PMS_P2;Temp;Humidity;BMP_temperature;BMP_pressure;BME280_temperature;BME280_humidity;BME280_pressure;Samples;Min_cycle;Max_cycle;Signal;HPM_P1;HPM_P2
2022/03/04 00:02:21;;;;;;;5.20;2.97;;;18.10;40.80;;;;;;5043311;28;88477;-65
2022/03/04 00:04:49;;;;;;;6.10;2.90;;;18.10;40.90;;;;;;5043578;28;88171;-65
2022/03/04 00:07:17;;;;;;;4.37;3.07;;;18.10;40.80;;;;;;5043078;28;89980;-65
2022/03/04 00:09:45;;;;;;;4.70;2.97;;;18.20;40.90;;;;;;5044311;27;92662;-65
2022/03/04 00:12:13;;;;;;;4.90;2.90;;;18.10;40.80;;;;;;5042876;28;88523;-65
2022/03/04 00:14:43;;;;;;;6.03;2.80;;;18.10;40.80;;;;;;5043563;28;88603;-65
2022/03/04 00:17:11;;;;;;;5.87;3.20;;;18.10;40.80;;;;;;5047078;28;90914;-65
2022/03/04 00:19:39;;;;;;;4.40;2.47;;;18.10;40.90;;;;;;5042713;28;89164;-65
2022/03/04 00:22:07;;;;;;;4.13;2.50;;;18.10;40.80;;;;;;5043569;28;88376;-65
2022/03/04 00:24:35;;;;;;;3.40;2.60;;;18.00;40.80;;;;;;5043108;28;88467;-64
2022/03/04 00:27:03;;;;;;;7.47;2.53;;;18.00;40.80;;;;;;5043766;27;90781;-65
2022/03/04 00:29:31;;;;;;;7.03;3.10;;;18.00;40.80;;;;;;5042552;28;90093;-65
2022/03/04 00:32:00;;;;;;;6.57;2.97;;;18.00;40.70;;;;;;5043176;28;88306;-65
2022/03/04 00:34:28;;;;;;;3.60;2.60;;;18.00;40.70;;;;;;5043561;28;88453;-64
2022/03/04 00:36:56;;;;;;;4.13;2.97;;;18.00;40.70;;;;;;5042976;28;90639;-65
2022/03/04 00:39:24;;;;;;;4.47;2.63;;;18.00;40.70;;;;;;5042936;28;90008;-65
2022/03/04 00:41:52;;;;;;;3.70;2.70;;;18.00;40.70;;;;;;5042421;28;88384;-65
2022/03/04 00:44:20;;;;;;;3.53;2.80;;;18.00;40.60;;;;;;5044258;27;88487;-65
2022/03/04 00:46:48;;;;;;;4.83;3.00;;;17.90;40.50;;;;;;5043030;28;90581;-65
2022/03/04 00:49:18;;;;;;;3.00;1.93;;;17.90;40.50;;;;;;5042740;28;90092;-66
2022/03/04 00:51:46;;;;;;;5.13;3.00;;;17.90;40.50;;;;;;5042725;28;88338;-65
2022/03/04 00:54:14;;;;;;;3.57;2.77;;;17.90;40.50;;;;;;5043253;28;88517;-64
2022/03/04 00:56:42;;;;;;;4.77;2.80;;;17.90;40.40;;;;;;5042202;28;90753;-65
2022/03/04 00:59:10;;;;;;;6.20;3.03;;;17.90;40.40;;;;;;5042645;28;89970;-65
2022/03/04 01:01:39;;;;;;;5.17;1.97;;;17.90;40.40;;;;;;5059944;27;88345;-65
2022/03/04 01:04:07;;;;;;;3.23;2.43;;;17.90;40.40;;;;;;5062556;27;88501;-65
2022/03/04 01:06:36;;;;;;;4.87;2.73;;;17.90;40.40;;;;;;5062341;27;90937;-65
2022/03/04 01:09:05;;;;;;;2.93;2.37;;;17.90;40.40;;;;;;5062616;27;89556;-65
2022/03/04 01:11:33;;;;;;;4.63;2.93;;;17.90;40.30;;;;;;5062668;27;88382;-65
2022/03/04 01:14:01;;;;;;;3.57;2.53;;;17.90;40.30;;;;;;5062637;27;88510;-65
2022/03/04 01:16:29;;;;;;;4.97;3.53;;;17.90;40.30;;;;;;5060910;27;90851;-65
2022/03/04 01:18:57;;;;;;;4.47;3.13;;;17.90;40.30;;;;;;5062984;27;90012;-65
2022/03/04 01:21:25;;;;;;;3.10;2.63;;;17.80;40.20;;;;;;5062523;27;88737;-65
2022/03/04 01:23:54;;;;;;;5.00;3.17;;;17.80;40.20;;;;;;5062022;27;88662;-65
2022/03/04 01:26:22;;;;;;;6.57;2.80;;;17.80;40.20;;;;;;5062120;27;90761;-65
2022/03/04 01:28:50;;;;;;;5.33;2.73;;;17.80;40.20;;;;;;5062268;27;90065;-64
2022/03/04 01:31:18;;;;;;;4.80;2.80;;;17.80;40.10;;;;;;5062280;27;88310;-64
2022/03/04 01:33:46;;;;;;;3.93;2.20;;;17.80;40.10;;;;;;5060573;27;88643;-65
2022/03/04 01:36:14;;;;;;;4.83;2.73;;;17.80;40.10;;;;;;5061918;27;90641;-65
2022/03/04 01:38:42;;;;;;;3.67;2.40;;;17.80;40.10;;;;;;5062014;27;90093;-66
2022/03/04 01:41:12;;;;;;;2.80;2.43;;;17.80;40.10;;;;;;5062006;27;88398;-66
2022/03/04 01:43:39;;;;;;;4.97;2.93;;;17.80;40.10;;;;;;5062546;27;88381;-65
2022/03/04 01:46:15;;;;;;;3.97;2.40;;;17.80;40.10;;;;;;5062017;27;90733;-66
2022/03/04 01:48:44;;;;;;;5.13;2.30;;;17.70;40.00;;;;;;5061905;27;90198;-66
2022/03/04 01:51:12;;;;;;;4.03;2.33;;;17.70;40.00;;;;;;5060761;27;88411;-66
2022/03/04 01:53:40;;;;;;;3.80;2.30;;;17.70;40.00;;;;;;5062582;27;88430;-66
2022/03/04 01:56:08;;;;;;;2.80;2.43;;;17.70;40.00;;;;;;5062148;27;89539;-66
2022/03/04 01:58:37;;;;;;;3.57;2.43;;;17.70;39.90;;;;;;5062029;27;90015;-66
2022/03/04 02:01:05;;;;;;;6.13;2.53;;;17.70;39.90;;;;;;5065477;27;88551;-66
2022/03/04 02:03:34;;;;;;;4.13;2.77;;;17.70;39.90;;;;;;5071517;27;88477;-66
2022/03/04 02:06:02;;;;;;;2.70;2.20;;;17.70;39.80;;;;;;5071662;27;92799;-66
2022/03/04 02:08:30;;;;;;;8.20;3.23;;;17.70;39.90;;;;;;5069349;27;90445;-66
2022/03/04 02:10:58;;;;;;;3.07;2.47;;;17.70;39.90;;;;;;5068656;27;88444;-67
2022/03/04 02:13:27;;;;;;;4.50;3.07;;;17.70;39.80;;;;;;5053257;27;88475;-66
2022/03/04 02:15:56;;;;;;;4.27;2.60;;;17.70;39.80;;;;;;5067798;27;94040;-66
2022/03/04 02:18:24;;;;;;;3.93;2.80;;;17.70;39.80;;;;;;5068884;27;88798;-66
2022/03/04 02:20:52;;;;;;;4.60;3.50;;;17.70;39.80;;;;;;5068399;27;88486;-66
2022/03/04 02:23:22;;;;;;;3.63;2.53;;;17.70;39.80;;;;;;5069758;27;88575;-66
2022/03/04 02:25:51;;;;;;;4.23;2.80;;;17.70;39.80;;;;;;5059279;27;90770;-66
2022/03/04 02:28:19;;;;;;;3.60;2.67;;;17.70;39.70;;;;;;5061553;27;90032;-66
2022/03/04 02:30:47;;;;;;;3.53;2.97;;;17.60;39.70;;;;;;5061586;27;88397;-67
2022/03/04 02:33:15;;;;;;;7.30;3.20;;;17.60;40.30;;;;;;5061812;27;88479;-66
2022/03/04 02:35:44;;;;;;;6.07;2.90;;;17.60;39.80;;;;;;5061346;27;90649;-64
2022/03/04 02:38:12;;;;;;;6.10;3.40;;;17.60;39.60;;;;;;5061584;27;88521;-65
2022/03/04 02:40:42;;;;;;;3.90;2.60;;;17.60;39.60;;;;;;5059475;27;88586;-65
2022/03/04 02:43:09;;;;;;;4.23;2.87;;;17.60;39.60;;;;;;5062069;27;88101;-65
2022/03/04 02:45:38;;;;;;;4.13;2.53;;;17.60;39.60;;;;;;5061803;27;90558;-65
2022/03/04 02:48:06;;;;;;;4.27;2.90;;;17.60;39.60;;;;;;5061164;27;90396;-65
2022/03/04 02:50:34;;;;;;;4.73;2.33;;;17.60;39.60;;;;;;5061578;27;88285;-64
2022/03/04 02:53:02;;;;;;;5.50;3.77;;;17.60;39.60;;;;;;5061490;27;88271;-65
2022/03/04 02:55:30;;;;;;;5.07;2.50;;;17.60;39.60;;;;;;5060722;27;88553;-65
2022/03/04 02:57:59;;;;;;;3.10;2.60;;;17.60;39.60;;;;;;5058758;27;90153;-66
2022/03/04 03:00:27;;;;;;;4.93;2.87;;;17.50;39.50;;;;;;5061387;27;88368;-65
2022/03/04 03:02:55;;;;;;;4.00;2.97;;;17.50;39.50;;;;;;5061434;27;88435;-65
2022/03/04 03:05:23;;;;;;;4.73;2.63;;;17.50;39.40;;;;;;5060709;27;90638;-64
2022/03/04 03:07:51;;;;;;;4.17;2.80;;;17.50;39.40;;;;;;5060774;27;89982;-65
2022/03/04 03:10:19;;;;;;;3.27;2.97;;;17.50;39.40;;;;;;5061049;27;88271;-65
2022/03/04 03:12:47;;;;;;;3.63;2.70;;;17.50;39.40;;;;;;5061174;27;88536;-64
2022/03/04 03:15:16;;;;;;;4.77;3.03;;;17.50;39.40;;;;;;5058808;27;91026;-65
2022/03/04 03:17:44;;;;;;;5.27;2.90;;;17.50;39.40;;;;;;5060838;27;90456;-65
2022/03/04 03:20:12;;;;;;;3.93;2.77;;;17.50;39.40;;;;;;5061046;27;88301;-65
2022/03/04 03:22:40;;;;;;;2.93;2.63;;;17.50;39.50;;;;;;5055520;27;88395;-65
2022/03/04 03:25:09;;;;;;;4.33;2.63;;;17.50;39.50;;;;;;5040546;28;90608;-65
2022/03/04 03:27:37;;;;;;;3.10;2.30;;;17.50;39.50;;;;;;5040158;28;90038;-65
2022/03/04 03:30:09;;;;;;;4.67;3.10;;;17.50;39.40;;;;;;5040423;28;88233;-65
2022/03/04 03:32:38;;;;;;;4.67;2.50;;;17.50;39.50;;;;;;5041027;27;88657;-65
2022/03/04 03:35:07;;;;;;;4.37;2.90;;;17.50;39.50;;;;;;5060214;27;90618;-65
2022/03/04 03:37:36;;;;;;;2.90;2.30;;;17.50;39.40;;;;;;5060737;27;90073;-65
2022/03/04 03:40:04;;;;;;;3.37;2.60;;;17.50;39.40;;;;;;5060526;27;88610;-65
2022/03/04 03:42:32;;;;;;;5.27;2.80;;;17.50;39.40;;;;;;5059727;27;88602;-65
2022/03/04 03:45:00;;;;;;;4.40;2.50;;;17.40;39.30;;;;;;5060521;27;90607;-65
2022/03/04 03:47:28;;;;;;;3.00;2.70;;;17.40;39.30;;;;;;5060478;27;89986;-65
2022/03/04 03:49:57;;;;;;;4.80;3.23;;;17.40;39.20;;;;;;5064511;27;88322;-65
2022/03/04 03:52:25;;;;;;;3.57;2.83;;;17.40;39.20;;;;;;5064506;27;88494;-65
2022/03/04 03:54:54;;;;;;;2.47;2.27;;;17.50;39.40;;;;;;5064143;27;90957;-65
2022/03/04 03:57:22;;;;;;;3.43;2.57;;;17.40;39.20;;;;;;5063971;27;89217;-65
2022/03/04 03:59:50;;;;;;;3.90;2.90;;;17.40;39.20;;;;;;5064172;27;88611;-64
2022/03/04 04:02:19;;;;;;;3.93;2.50;;;17.40;39.20;;;;;;5064868;27;88374;-66
2022/03/04 04:04:47;;;;;;;3.83;2.30;;;17.40;39.20;;;;;;5058727;27;93966;-66
2022/03/04 04:07:17;;;;;;;6.23;2.77;;;17.40;39.20;;;;;;5042879;28;91595;-65
2022/03/04 04:09:45;;;;;;;3.53;2.50;;;17.40;39.20;;;;;;5043371;28;88456;-65
2022/03/04 04:12:13;;;;;;;5.93;3.20;;;17.40;39.20;;;;;;5043898;28;88431;-67
2022/03/04 04:14:45;;;;;;;3.97;2.40;;;17.40;39.20;;;;;;5045760;28;90975;-64
2022/03/04 04:17:16;;;;;;;3.17;2.57;;;17.40;39.20;;;;;;5048399;28;88495;-66
2022/03/04 04:19:44;;;;;;;2.53;2.17;;;17.30;39.10;;;;;;5045422;28;88296;-64
2022/03/04 04:22:12;;;;;;;2.90;2.40;;;17.30;39.10;;;;;;5045977;27;88137;-65
2022/03/04 04:24:41;;;;;;;6.07;3.23;;;17.30;39.10;;;;;;5046668;28;90658;-64
2022/03/04 04:27:11;;;;;;;3.33;2.40;;;17.30;39.10;;;;;;5044473;28;88952;-65
2022/03/04 04:29:39;;;;;;;3.27;2.63;;;17.30;39.10;;;;;;5045709;28;88328;-66
2022/03/04 04:32:09;;;;;;;3.20;2.63;;;17.30;39.10;;;;;;5043336;28;88627;-65
2022/03/04 04:34:37;;;;;;;2.53;2.33;;;17.30;39.10;;;;;;5043396;28;91963;-66
2022/03/04 04:37:05;;;;;;;5.70;2.97;;;17.30;39.10;;;;;;5043326;28;90194;-66
2022/03/04 04:39:33;;;;;;;3.63;2.83;;;17.30;39.10;;;;;;5043569;27;88292;-66
2022/03/04 04:42:03;;;;;;;3.33;2.10;;;17.20;39.00;;;;;;5042458;28;88438;-66
2022/03/04 04:44:30;;;;;;;3.60;2.43;;;17.20;39.00;;;;;;5042594;28;90872;-66
2022/03/04 04:46:58;;;;;;;4.03;2.43;;;17.20;39.00;;;;;;5042979;28;90162;-66
2022/03/04 04:49:26;;;;;;;4.57;2.60;;;17.20;39.00;;;;;;5057790;27;88372;-66
2022/03/04 04:51:54;;;;;;;2.90;2.33;;;17.20;39.00;;;;;;5063528;27;88458;-66
2022/03/04 04:54:22;;;;;;;4.20;2.17;;;17.20;39.00;;;;;;5062825;27;90138;-65
2022/03/04 04:56:50;;;;;;;3.63;2.30;;;17.20;39.00;;;;;;5062610;27;90052;-66
2022/03/04 04:59:20;;;;;;;3.53;1.93;;;17.20;39.00;;;;;;5063384;27;88242;-66
2022/03/04 05:01:48;;;;;;;4.10;2.53;;;17.20;39.00;;;;;;5063923;27;88431;-66
2022/03/04 05:04:16;;;;;;;2.90;2.37;;;17.20;39.00;;;;;;5062451;27;89515;-66
2022/03/04 05:06:44;;;;;;;8.50;2.90;;;17.20;39.00;;;;;;5063159;27;90788;-66
2022/03/04 05:09:12;;;;;;;3.57;2.77;;;17.20;39.00;;;;;;5062358;27;88235;-66
2022/03/04 05:11:40;;;;;;;4.20;2.73;;;17.20;39.00;;;;;;5058792;27;88411;-66
2022/03/04 05:14:08;;;;;;;3.40;2.20;;;17.20;39.00;;;;;;5050816;27;90643;-66
2022/03/04 05:16:37;;;;;;;5.93;2.77;;;17.20;39.00;;;;;;5062296;27;90127;-66
2022/03/04 05:19:05;;;;;;;2.80;2.23;;;17.20;39.00;;;;;;5062839;27;88506;-66
2022/03/04 05:21:34;;;;;;;3.77;2.67;;;17.20;39.00;;;;;;5063270;27;88499;-65
2022/03/04 05:24:02;;;;;;;4.87;2.50;;;17.20;39.00;;;;;;5062842;27;90622;-66
2022/03/04 05:26:31;;;;;;;3.93;2.33;;;17.10;38.90;;;;;;5062419;27;90128;-66
2022/03/04 05:29:00;;;;;;;3.03;2.10;;;17.10;38.80;;;;;;5055005;27;88569;-66
2022/03/04 05:31:28;;;;;;;3.57;2.10;;;17.10;38.90;;;;;;5041691;28;88701;-66
2022/03/04 05:33:59;;;;;;;4.43;2.57;;;17.10;38.90;;;;;;5041935;27;90711;-66
2022/03/04 05:36:27;;;;;;;3.33;2.40;;;17.10;38.80;;;;;;5041536;28;90441;-66
2022/03/04 05:38:55;;;;;;;4.20;2.50;;;17.10;38.80;;;;;;5042418;28;88370;-66
2022/03/04 05:41:23;;;;;;;5.27;2.60;;;17.20;38.90;;;;;;5041594;28;89206;-66
2022/03/04 05:43:51;;;;;;;4.27;2.67;;;17.10;38.80;;;;;;5041314;28;89702;-66
2022/03/04 05:46:19;;;;;;;4.87;2.67;;;17.10;38.80;;;;;;5042357;27;90003;-66
2022/03/04 05:48:47;;;;;;;5.97;2.47;;;17.10;38.80;;;;;;5058163;27;88567;-66
2022/03/04 05:51:17;;;;;;;3.67;2.57;;;17.10;38.80;;;;;;5062466;27;88601;-66
2022/03/04 05:53:45;;;;;;;2.63;2.30;;;17.10;38.80;;;;;;5052311;27;90726;-66
2022/03/04 05:56:13;;;;;;;3.13;2.20;;;17.00;38.70;;;;;;5040901;28;90033;-65
2022/03/04 05:58:41;;;;;;;5.53;2.60;;;17.10;38.80;;;;;;5040922;28;88492;-66
2022/03/04 06:01:09;;;;;;;2.80;2.17;;;17.10;38.80;;;;;;5041921;28;88474;-66
2022/03/04 06:03:37;;;;;;;3.77;2.63;;;17.00;38.80;;;;;;5053918;27;90795;-66
2022/03/04 06:06:05;;;;;;;3.90;1.90;;;17.00;38.70;;;;;;5041212;28;90111;-66
2022/03/04 06:08:34;;;;;;;4.43;2.50;;;17.00;38.70;;;;;;5041550;28;88440;-66
2022/03/04 06:11:03;;;;;;;3.63;2.30;;;17.00;38.70;;;;;;5040527;27;88456;-66
2022/03/04 06:13:31;;;;;;;3.50;2.67;;;17.00;38.70;;;;;;5049009;27;89534;-66
2022/03/04 06:15:59;;;;;;;4.67;3.00;;;17.00;38.70;;;;;;5061620;27;90061;-66
2022/03/04 06:18:27;;;;;;;2.97;2.40;;;17.00;38.70;;;;;;5062051;27;88290;-66
2022/03/04 06:20:55;;;;;;;3.40;2.53;;;17.00;38.70;;;;;;5061915;27;88272;-66
2022/03/04 06:23:23;;;;;;;2.47;1.90;;;17.00;38.70;;;;;;5061590;27;89382;-66
2022/03/04 06:25:55;;;;;;;3.17;2.00;;;17.00;38.70;;;;;;5061125;27;89933;-66
2022/03/04 06:28:23;;;;;;;3.03;2.47;;;17.00;38.70;;;;;;5047066;27;88576;-64
2022/03/04 06:30:51;;;;;;;6.17;3.17;;;17.00;38.80;;;;;;5041255;28;88446;-64
2022/03/04 06:33:32;;;;;;;3.47;2.60;;;16.90;38.60;;;;;;5050093;27;89859;-64
2022/03/04 06:36:02;;;;;;;3.87;2.47;;;16.90;38.60;;;;;;5060130;27;90165;-64
2022/03/04 06:38:30;;;;;;;4.30;2.80;;;16.90;38.60;;;;;;5061425;27;88569;-64
2022/03/04 06:41:00;;;;;;;4.73;3.00;;;16.90;38.60;;;;;;5061917;27;88389;-65
2022/03/04 06:43:28;;;;;;;4.47;2.50;;;16.90;38.60;;;;;;5064335;27;90598;-65
2022/03/04 06:45:56;;;;;;;4.07;2.47;;;16.90;38.60;;;;;;5065238;27;89854;-65
2022/03/04 06:48:24;;;;;;;3.87;2.53;;;17.10;38.80;;;;;;5074576;27;88522;-64
2022/03/04 06:50:52;;;;;;;3.53;2.30;;;16.90;38.70;;;;;;5081147;27;88157;-64
2022/03/04 06:53:20;;;;;;;3.13;2.20;;;16.90;38.70;;;;;;5068519;27;90749;-64
2022/03/04 06:55:48;;;;;;;4.20;2.67;;;16.90;38.60;;;;;;5057666;27;92397;-65
2022/03/04 06:58:17;;;;;;;3.97;2.60;;;16.90;38.60;;;;;;5071256;27;88224;-64
2022/03/04 07:00:47;;;;;;;4.03;2.60;;;16.90;38.60;;;;;;5066405;27;88517;-65
2022/03/04 07:03:15;;;;;;;4.10;2.50;;;16.90;38.60;;;;;;5055330;27;90716;-64
2022/03/04 07:05:45;;;;;;;3.80;3.00;;;17.00;38.70;;;;;;5050058;27;90144;-64
2022/03/04 07:08:14;;;;;;;3.77;2.57;;;17.00;38.70;;;;;;5048918;27;88605;-65
2022/03/04 07:10:42;;;;;;;2.53;2.27;;;17.00;38.60;;;;;;5051958;27;88519;-65
2022/03/04 07:13:10;;;;;;;2.73;2.27;;;17.00;38.60;;;;;;5052656;27;89454;-65
2022/03/04 07:15:40;;;;;;;5.30;2.70;;;17.00;38.50;;;;;;5048832;27;90140;-64
2022/03/04 07:18:08;;;;;;;3.40;2.50;;;17.00;38.50;;;;;;5049269;27;88408;-65
2022/03/04 07:20:36;;;;;;;4.50;2.73;;;17.00;38.50;;;;;;5065244;27;88506;-64
2022/03/04 07:23:05;;;;;;;4.90;2.53;;;17.00;38.50;;;;;;5081594;27;90717;-64
2022/03/04 07:25:33;;;;;;;3.73;2.47;;;17.00;38.50;;;;;;5074524;27;89901;-66
2022/03/04 07:28:01;;;;;;;4.43;2.83;;;17.00;38.50;;;;;;5069203;27;88585;-66
2022/03/04 07:30:29;;;;;;;6.20;2.87;;;17.00;38.50;;;;;;5073267;27;88586;-66
2022/03/04 07:32:59;;;;;;;3.87;3.00;;;17.00;38.50;;;;;;5070743;27;90754;-66
2022/03/04 07:35:27;;;;;;;4.43;2.90;;;17.10;38.60;;;;;;5063738;27;88840;-67
2022/03/04 07:37:55;;;;;;;4.30;2.87;;;17.00;38.40;;;;;;5054171;27;88569;-66
2022/03/04 07:40:23;;;;;;;4.47;3.07;;;17.00;38.50;;;;;;5052002;27;88532;-66
2022/03/04 07:42:51;;;;;;;4.23;2.63;;;17.00;38.40;;;;;;5050480;27;90756;-66
2022/03/04 07:45:19;;;;;;;5.17;2.70;;;16.90;38.40;;;;;;5054123;27;89088;-66
2022/03/04 07:47:47;;;;;;;2.67;2.37;;;17.00;38.40;;;;;;5062055;27;88479;-66
2022/03/04 07:50:16;;;;;;;3.83;2.80;;;17.00;38.40;;;;;;5056588;27;88512;-66
2022/03/04 07:52:48;;;;;;;4.27;3.00;;;17.00;38.40;;;;;;5054319;27;90614;-66
2022/03/04 07:55:16;;;;;;;4.60;2.40;;;17.00;38.40;;;;;;5051757;27;89864;-66
2022/03/04 07:57:44;;;;;;;5.53;3.00;;;16.90;38.40;;;;;;5056697;27;89168;-66
2022/03/04 08:00:14;;;;;;;4.13;2.83;;;16.90;38.30;;;;;;5057126;27;88323;-66
2022/03/04 08:02:42;;;;;;;4.87;2.40;;;17.00;38.40;;;;;;5053483;27;93525;-66
2022/03/04 08:05:10;;;;;;;2.97;2.47;;;16.90;38.30;;;;;;5059819;27;88878;-66
2022/03/04 08:07:40;;;;;;;3.17;2.67;;;16.90;38.30;;;;;;5063618;27;88663;-65
2022/03/04 08:10:09;;;;;;;5.23;2.47;;;16.90;38.30;;;;;;5063075;27;88660;-65
2022/03/04 08:12:37;;;;;;;4.57;2.73;;;16.90;38.60;;;;;;5063708;27;90701;-65
2022/03/04 08:15:06;;;;;;;5.73;2.73;;;17.00;38.40;;;;;;5063527;27;90112;-65
2022/03/04 08:17:34;;;;;;;3.67;2.63;;;16.90;38.30;;;;;;5063793;27;88286;-65
2022/03/04 08:20:02;;;;;;;3.73;2.67;;;17.00;38.50;;;;;;5065484;27;88405;-64
2022/03/04 08:22:30;;;;;;;5.10;3.10;;;17.00;38.70;;;;;;5076751;27;90640;-66
2022/03/04 08:24:59;;;;;;;6.77;2.80;;;17.00;38.90;;;;;;5062775;27;90090;-66
2022/03/04 08:27:27;;;;;;;4.53;2.83;;;17.00;39.20;;;;;;5063016;27;88697;-66
2022/03/04 08:29:55;;;;;;;6.53;3.53;;;17.00;39.60;;;;;;5070515;27;88511;-65
2022/03/04 08:32:25;;;;;;;4.47;3.43;;;17.00;39.80;;;;;;5083853;27;90485;-65
2022/03/04 08:34:59;;;;;;;6.40;3.40;;;17.00;40.00;;;;;;5068145;27;90079;-66
2022/03/04 08:37:27;;;;;;;4.10;2.80;;;17.10;40.30;;;;;;5063396;27;88445;-65
2022/03/04 08:39:55;;;;;;;6.43;2.83;;;17.10;40.50;;;;;;5061405;27;88507;-66
2022/03/04 08:42:24;;;;;;;8.97;3.97;;;17.20;40.60;;;;;;5049263;27;89806;-65
2022/03/04 08:44:54;;;;;;;8.37;3.57;;;17.20;40.70;;;;;;5042610;28;90250;-66
2022/03/04 08:47:22;;;;;;;5.37;3.23;;;17.30;40.90;;;;;;5042162;28;88482;-65
2022/03/04 08:49:50;;;;;;;5.73;3.43;;;17.30;41.50;;;;;;5042939;28;88508;-66
2022/03/04 08:52:18;;;;;;;6.33;2.93;;;17.30;40.90;;;;;;5042965;28;90615;-66
2022/03/04 08:54:46;;;;;;;5.47;3.17;;;17.30;41.00;;;;;;5043261;28;89319;-66
2022/03/04 08:57:14;;;;;;;8.80;3.33;;;17.30;41.00;;;;;;5043057;28;88296;-66
2022/03/04 08:59:43;;;;;;;5.67;3.33;;;17.40;41.10;;;;;;5043404;27;88255;-66
2022/03/04 09:02:11;;;;;;;5.50;3.10;;;17.30;41.00;;;;;;5042518;28;90601;-65
2022/03/04 09:04:39;;;;;;;3.80;2.83;;;17.30;41.10;;;;;;5042120;28;88891;-66
2022/03/04 09:07:07;;;;;;;4.50;3.10;;;17.30;41.10;;;;;;5053561;27;88542;-66
2022/03/04 09:09:35;;;;;;;5.80;2.67;;;17.30;41.10;;;;;;5046422;27;89613;-66
2022/03/04 09:12:04;;;;;;;7.57;3.27;;;17.30;41.10;;;;;;5061297;27;90762;-66
2022/03/04 09:14:32;;;;;;;3.40;2.30;;;17.30;41.10;;;;;;5043991;27;90010;-66
2022/03/04 09:17:02;;;;;;;3.80;2.50;;;17.30;41.20;;;;;;5042447;28;88294;-66
2022/03/04 09:19:30;;;;;;;7.63;2.77;;;17.30;41.30;;;;;;5042620;27;88710;-67
2022/03/04 09:22:18;;;;;;;5.43;2.77;;;17.40;41.40;;;;;;5042957;28;92803;-67
2022/03/04 09:24:46;;;;;;;4.10;2.60;;;17.50;41.40;;;;;;5041663;28;90039;-67
2022/03/04 09:27:14;;;;;;;3.00;2.47;;;17.60;41.40;;;;;;5062579;27;88438;-66
2022/03/04 09:29:42;;;;;;;3.63;2.73;;;17.90;41.40;;;;;;5057002;27;88518;-66
2022/03/04 09:32:12;;;;;;;4.27;2.77;;;18.00;41.40;;;;;;5042172;27;90675;-66
2022/03/04 09:34:40;;;;;;;4.30;2.30;;;;;;;;;;5051594;27;90034;-66
2022/03/04 09:37:08;;;;;;;3.70;2.03;;;18.60;40.70;;;;;;5061196;27;91830;-65
2022/03/04 09:39:36;;;;;;;3.10;2.20;;;19.00;41.30;;;;;;5059142;27;88743;-64
2022/03/04 09:42:05;;;;;;;2.47;1.83;;;19.30;41.20;;;;;;5061306;27;90632;-64
2022/03/04 09:44:33;;;;;;;4.10;2.30;;;19.50;41.10;;;;;;5059615;27;93058;-64
2022/03/04 09:47:01;;;;;;;3.95;2.40;;;19.80;41.00;;;;;;5063450;27;88365;-65
2022/03/04 09:49:33;;;;;;;3.37;2.53;;;20.00;41.00;;;;;;5067245;27;88494;-64
2022/03/04 09:52:01;;;;;;;5.87;2.70;;;20.30;41.00;;;;;;5040802;28;90682;-67
2022/03/04 09:54:29;;;;;;;5.77;2.63;;;20.50;41.00;;;;;;5040867;28;89592;-67
2022/03/04 09:56:57;;;;;;;6.73;2.60;;;20.70;41.20;;;;;;5056315;27;88273;-67
2022/03/04 09:59:25;;;;;;;6.27;2.83;;;20.90;41.60;;;;;;5068306;27;88452;-67
2022/03/04 10:01:53;;;;;;;4.67;2.83;;;21.00;41.90;;;;;;5061664;27;93359;-67
2022/03/04 10:04:26;;;;;;;5.33;2.90;;;21.00;42.10;;;;;;5061181;27;90001;-67
2022/03/04 10:06:55;;;;;;;3.77;2.47;;;21.10;42.60;;;;;;5061534;27;88415;-67
2022/03/04 10:09:45;;;;;;;9.13;2.53;;;21.10;42.80;;;;;;5062831;27;88474;-67
2022/03/04 10:12:13;;;;;;;2.27;2.00;;;21.00;43.10;;;;;;5076306;27;90627;-67
2022/03/04 10:15:00;;;;;;;7.47;2.60;;;21.00;43.30;;;;;;5062742;27;89695;-67
2022/03/04 10:17:31;;;;;;;2.87;2.07;;;21.00;43.50;;;;;;5075952;27;88309;-67
2022/03/04 10:20:00;;;;;;;3.03;2.30;;;21.20;43.70;;;;;;5061159;27;88463;-67
2022/03/04 10:22:37;;;;;;;3.47;2.20;;;21.30;43.70;;;;;;5060847;27;90834;-67
2022/03/04 10:25:19;;;;;;;2.87;1.90;;;21.50;43.80;;;;;;5061535;27;88708;-67
2022/03/04 10:27:47;;;;;;;4.17;2.10;;;21.70;43.80;;;;;;5059910;27;88543;-68
2022/03/04 10:30:16;;;;;;;5.27;2.47;;;21.90;43.30;;;;;;5061740;27;88569;-68
2022/03/04 10:32:44;;;;;;;3.47;2.20;;;22.00;43.80;;;;;;5061208;27;93239;-67
2022/03/04 10:35:13;;;;;;;2.93;1.97;;;22.20;43.80;;;;;;5061357;27;92716;-66
2022/03/04 10:37:44;;;;;;;2.93;2.13;;;22.20;43.70;;;;;;5059954;27;88550;-66
2022/03/04 10:40:13;;;;;;;3.63;1.80;;;22.30;43.60;;;;;;5060877;27;88546;-66
2022/03/04 10:42:46;;;;;;;3.43;2.23;;;22.20;43.40;;;;;;5060094;27;90556;-69
2022/03/04 10:45:15;;;;;;;3.67;1.90;;;22.20;43.30;;;;;;5061394;27;92415;-67
2022/03/04 10:47:45;;;;;;;3.23;1.70;;;22.10;43.20;;;;;;5063040;27;88425;-67
2022/03/04 10:50:13;;;;;;;2.30;1.90;;;22.20;43.30;;;;;;5080102;27;88435;-67
2022/03/04 10:52:54;;;;;;;2.57;1.90;;;22.30;43.30;;;;;;5071465;27;90515;-67
2022/03/04 10:55:27;;;;;;;2.63;1.83;;;22.30;43.10;;;;;;5061253;27;91749;-67
2022/03/04 10:57:55;;;;;;;2.27;1.57;;;22.50;43.10;;;;;;5057763;27;88387;-67
2022/03/04 11:00:27;;;;;;;5.03;2.47;;;22.80;42.30;;;;;;5058612;27;88476;-67
2022/03/04 11:02:56;;;;;;;2.47;1.60;;;22.80;42.90;;;;;;5064328;27;90627;-67
2022/03/04 11:05:24;;;;;;;2.77;2.07;;;23.00;42.90;;;;;;5064730;27;89995;-67
2022/03/04 11:07:53;;;;;;;2.83;1.73;;;23.10;42.70;;;;;;5063855;27;88391;-67
2022/03/04 11:10:22;;;;;;;1.93;1.73;;;23.10;42.60;;;;;;5064397;27;88616;-68
2022/03/04 11:12:53;;;;;;;1.80;1.53;;;23.20;42.60;;;;;;5063556;27;90805;-68
2022/03/04 11:15:22;;;;;;;1.63;1.53;;;23.10;42.60;;;;;;5070591;27;92820;-67
2022/03/04 11:17:51;;;;;;;2.70;1.80;;;23.10;42.60;;;;;;5061156;27;88675;-67
2022/03/04 11:20:19;;;;;;;5.73;1.70;;;23.10;42.60;;;;;;5064085;27;88492;-67
2022/03/04 11:22:49;;;;;;;3.87;1.80;;;23.20;42.60;;;;;;5064266;27;93898;-68
2022/03/04 11:25:18;;;;;;;3.03;1.87;;;23.30;42.70;;;;;;5064482;27;90007;-68
2022/03/04 11:27:47;;;;;;;2.83;2.00;;;23.40;42.50;;;;;;5064277;27;88415;-68
2022/03/04 11:30:29;;;;;;;2.87;1.70;;;23.50;42.50;;;;;;5065353;27;88478;-67
2022/03/04 11:33:04;;;;;;;3.13;1.77;;;23.70;42.50;;;;;;5068546;27;89071;-68
2022/03/04 11:35:36;;;;;;;1.97;1.77;;;23.80;42.30;;;;;;5083429;27;90017;-67
2022/03/04 11:38:04;;;;;;;1.93;1.73;;;23.80;42.30;;;;;;5061689;27;88488;-67
2022/03/04 11:40:35;;;;;;;2.57;1.80;;;23.80;42.20;;;;;;5063853;27;88571;-67
2022/03/04 11:43:06;;;;;;;2.60;2.20;;;23.80;42.20;;;;;;5063337;27;90059;-68
2022/03/04 11:45:35;;;;;;;1.93;1.73;;;23.80;42.30;;;;;;5062321;27;93324;-67
2022/03/04 11:48:05;;;;;;;2.13;1.50;;;23.70;42.20;;;;;;5044053;27;88408;-67
2022/03/04 11:50:34;;;;;;;2.40;1.60;;;23.60;42.20;;;;;;5043173;28;88549;-67
2022/03/04 11:53:15;;;;;;;2.20;1.80;;;23.60;42.30;;;;;;5060533;27;90766;-67
2022/03/04 11:56:13;;;;;;;2.43;1.70;;;23.50;42.40;;;;;;5063126;27;91166;-66
2022/03/04 11:59:18;;;;;;;2.67;1.50;;;23.30;42.40;;;;;;5063575;27;88393;-66
2022/03/04 12:01:46;;;;;;;3.40;1.90;;;23.30;42.50;;;;;;5046848;27;88517;-66
2022/03/04 12:04:15;;;;;;;2.67;1.97;;;23.20;42.40;;;;;;5050677;27;90744;-66
2022/03/04 12:06:44;;;;;;;5.90;2.13;;;23.10;42.50;;;;;;5062600;27;89934;-69
2022/03/04 12:09:27;;;;;;;3.93;1.93;;;23.10;42.50;;;;;;5062957;27;88334;-67
2022/03/04 12:12:13;;;;;;;3.80;2.00;;;23.10;42.40;;;;;;5063740;27;88447;-66
2022/03/04 12:14:42;;;;;;;2.70;2.00;;;23.20;42.30;;;;;;5057017;27;90635;-67
2022/03/04 12:17:11;;;;;;;2.80;2.10;;;23.30;42.20;;;;;;5060857;27;92771;-66
2022/03/04 12:19:39;;;;;;;1.77;1.67;;;23.40;42.10;;;;;;5063001;27;88581;-66
2022/03/04 12:22:07;;;;;;;2.93;2.20;;;23.40;42.00;;;;;;5063056;27;88436;-66
2022/03/04 12:24:35;;;;;;;2.47;1.90;;;23.50;41.90;;;;;;5063057;27;90640;-66
2022/03/04 12:27:04;;;;;;;2.67;1.83;;;23.60;41.90;;;;;;5062321;27;90510;-66
2022/03/04 12:29:50;;;;;;;4.97;2.37;;;23.70;41.70;;;;;;5062407;27;88481;-66
2022/03/04 12:32:18;;;;;;;2.87;1.93;;;23.80;41.50;;;;;;5062370;27;88640;-66
2022/03/04 12:34:50;;;;;;;6.10;1.90;;;24.00;41.30;;;;;;5063286;27;89555;-66
2022/03/04 12:37:18;;;;;;;6.50;2.07;;;24.20;41.20;;;;;;5062557;27;90102;-66
2022/03/04 12:39:51;;;;;;;5.50;1.53;;;24.30;41.00;;;;;;5063130;27;88446;-66
2022/03/04 12:42:19;;;;;;;3.40;1.90;;;24.30;40.80;;;;;;5063216;27;88430;-66
2022/03/04 12:44:49;;;;;;;2.20;2.00;;;24.40;40.70;;;;;;5043848;27;91245;-66
2022/03/04 12:47:17;;;;;;;5.67;2.17;;;24.40;40.60;;;;;;5042110;28;90189;-66
2022/03/04 12:49:46;;;;;;;3.70;1.80;;;24.30;40.50;;;;;;5055645;27;88459;-67
2022/03/04 12:52:18;;;;;;;3.87;1.90;;;24.30;40.40;;;;;;5057507;27;88520;-66
2022/03/04 13:00:08;;;;;;;9.80;2.10;;;24.10;40.50;;;;;;5009146;28;89623;-68
2022/03/04 13:02:36;;;;;;;2.70;1.73;;;24.00;40.60;;;;;;5021387;28;88527;-68
2022/03/04 13:05:05;;;;;;;2.07;1.57;;;23.90;40.60;;;;;;5022243;28;91678;-67